sensor_id;sensor_type;location;lat;lon;timestamp;P1;durP1;ratioP1;P2;durP2;ratioP2
5493;SDS011;2769;49.864;8.656;2023-08-20T00:01:13;8.77;;;5.73;;
5493;SDS011;2769;49.864;8.656;2023-08-20T00:04:03;6.57;;;5.77;;
5493;SDS011;2769;49.864;8.656;2023-08-20T00:06:52;15.50;;;5.80;;
5493;SDS011;2769;49.864;8.656;2023-08-20T00:09:40;10.20;;;6.20;;
5493;SDS011;2769;49.864;8.656;2023-08-20T00:12:28;9.80;;;5.87;;
5493;SDS011;2769;49.864;8.656;2023-08-20T00:15:17;11.70;;;6.73;;
5493;SDS011;2769;49.864;8.656;2023-08-20T00:18:08;8.53;;;5.97;;
5493;SDS011;2769;49.864;8.656;2023-08-20T00:20:57;7.37;;;6.07;;
5493;SDS011;2769;49.864;8.656;2023-08-20T00:23:46;6.83;;;5.90;;
5493;SDS011;2769;49.864;8.656;2023-08-20T00:26:35;9.50;;;5.77;;
5493;SDS011;2769;49.864;8.656;2023-08-20T00:29:24;6.63;;;5.93;;
5493;SDS011;2769;49.864;8.656;2023-08-20T00:32:12;9.73;;;6.60;;
5493;SDS011;2769;49.864;8.656;2023-08-20T00:35:03;12.20;;;6.57;;
5493;SDS011;2769;49.864;8.656;2023-08-20T00:37:55;6.57;;;5.60;;
5493;SDS011;2769;49.864;8.656;2023-08-20T00:40:43;7.60;;;6.13;;
5493;SDS011;2769;49.864;8.656;2023-08-20T00:43:32;12.40;;;6.40;;
5493;SDS011;2769;49.864;8.656;2023-08-20T00:46:20;7.83;;;6.50;;
5493;SDS011;2769;49.864;8.656;2023-08-20T00:49:09;10.20;;;6.37;;
5493;SDS011;2769;49.864;8.656;2023-08-20T00:51:59;8.40;;;6.37;;
5493;SDS011;2769;49.864;8.656;2023-08-20T00:54:47;7.33;;;6.27;;
5493;SDS011;2769;49.864;8.656;2023-08-20T00:57:36;10.20;;;6.67;;
5493;SDS011;2769;49.864;8.656;2023-08-20T01:00:25;7.57;;;6.43;;
5493;SDS011;2769;49.864;8.656;2023-08-20T01:03:13;15.10;;;5.80;;
5493;SDS011;2769;49.864;8.656;2023-08-20T01:06:05;6.90;;;6.23;;
5493;SDS011;2769;49.864;8.656;2023-08-20T01:08:58;10.20;;;6.10;;
5493;SDS011;2769;49.864;8.656;2023-08-20T01:11:52;7.93;;;7.13;;
5493;SDS011;2769;49.864;8.656;2023-08-20T01:14:44;7.93;;;6.20;;
5493;SDS011;2769;49.864;8.656;2023-08-20T01:17:32;12.20;;;7.00;;
5493;SDS011;2769;49.864;8.656;2023-08-20T01:20:21;7.37;;;6.03;;
5493;SDS011;2769;49.864;8.656;2023-08-20T01:26:59;7.13;;;6.43;;
5493;SDS011;2769;49.864;8.656;2023-08-20T01:29:53;8.50;;;6.10;;
5493;SDS011;2769;49.864;8.656;2023-08-20T01:32:44;7.43;;;6.73;;
5493;SDS011;2769;49.864;8.656;2023-08-20T01:35:32;10.23;;;6.60;;
5493;SDS011;2769;49.864;8.656;2023-08-20T01:38:31;8.60;;;6.43;;
5493;SDS011;2769;49.864;8.656;2023-08-20T01:41:22;7.47;;;6.27;;
5493;SDS011;2769;49.864;8.656;2023-08-20T01:44:10;11.70;;;6.40;;
5493;SDS011;2769;49.864;8.656;2023-08-20T01:47:00;11.97;;;6.07;;
5493;SDS011;2769;49.864;8.656;2023-08-20T01:49:49;6.87;;;6.37;;
5493;SDS011;2769;49.864;8.656;2023-08-20T01:52:37;8.40;;;6.60;;
5493;SDS011;2769;49.864;8.656;2023-08-20T01:55:26;12.00;;;6.60;;
5493;SDS011;2769;49.864;8.656;2023-08-20T01:58:18;9.80;;;6.20;;
5493;SDS011;2769;49.864;8.656;2023-08-20T02:01:06;9.27;;;6.47;;
5493;SDS011;2769;49.864;8.656;2023-08-20T02:03:56;8.43;;;7.50;;
5493;SDS011;2769;49.864;8.656;2023-08-20T02:06:45;9.80;;;7.63;;
5493;SDS011;2769;49.864;8.656;2023-08-20T02:09:34;9.60;;;6.60;;
5493;SDS011;2769;49.864;8.656;2023-08-20T02:12:24;10.60;;;6.40;;
5493;SDS011;2769;49.864;8.656;2023-08-20T02:15:14;9.40;;;7.17;;
5493;SDS011;2769;49.864;8.656;2023-08-20T02:18:02;13.60;;;8.17;;
5493;SDS011;2769;49.864;8.656;2023-08-20T02:20:52;11.83;;;8.03;;
5493;SDS011;2769;49.864;8.656;2023-08-20T02:23:40;11.83;;;7.03;;
5493;SDS011;2769;49.864;8.656;2023-08-20T02:26:29;11.90;;;7.30;;
5493;SDS011;2769;49.864;8.656;2023-08-20T02:29:17;11.03;;;7.43;;
5493;SDS011;2769;49.864;8.656;2023-08-20T02:32:05;9.33;;;7.50;;
5493;SDS011;2769;49.864;8.656;2023-08-20T02:34:53;11.27;;;8.00;;
5493;SDS011;2769;49.864;8.656;2023-08-20T02:37:46;10.20;;;7.50;;
5493;SDS011;2769;49.864;8.656;2023-08-20T02:40:39;12.60;;;7.93;;
5493;SDS011;2769;49.864;8.656;2023-08-20T02:43:28;8.80;;;6.97;;
5493;SDS011;2769;49.864;8.656;2023-08-20T02:46:16;9.07;;;7.50;;
5493;SDS011;2769;49.864;8.656;2023-08-20T02:49:04;8.73;;;7.90;;
5493;SDS011;2769;49.864;8.656;2023-08-20T02:51:53;8.10;;;7.30;;
5493;SDS011;2769;49.864;8.656;2023-08-20T02:54:43;9.10;;;7.93;;
5493;SDS011;2769;49.864;8.656;2023-08-20T02:57:31;11.50;;;7.33;;
5493;SDS011;2769;49.864;8.656;2023-08-20T03:00:20;9.73;;;7.30;;
5493;SDS011;2769;49.864;8.656;2023-08-20T03:03:08;13.40;;;8.80;;
5493;SDS011;2769;49.864;8.656;2023-08-20T03:05:58;15.50;;;8.30;;
5493;SDS011;2769;49.864;8.656;2023-08-20T03:08:46;9.23;;;8.10;;
5493;SDS011;2769;49.864;8.656;2023-08-20T03:11:36;9.63;;;7.93;;
5493;SDS011;2769;49.864;8.656;2023-08-20T03:14:24;15.70;;;8.33;;
5493;SDS011;2769;49.864;8.656;2023-08-20T03:17:14;11.10;;;8.70;;
5493;SDS011;2769;49.864;8.656;2023-08-20T03:20:03;12.33;;;8.13;;
5493;SDS011;2769;49.864;8.656;2023-08-20T03:22:53;10.83;;;8.50;;
5493;SDS011;2769;49.864;8.656;2023-08-20T03:25:41;11.23;;;7.73;;
5493;SDS011;2769;49.864;8.656;2023-08-20T03:28:31;10.43;;;8.07;;
5493;SDS011;2769;49.864;8.656;2023-08-20T03:31:19;10.93;;;8.00;;
5493;SDS011;2769;49.864;8.656;2023-08-20T03:34:07;15.27;;;8.00;;
5493;SDS011;2769;49.864;8.656;2023-08-20T03:36:57;9.63;;;8.53;;
5493;SDS011;2769;49.864;8.656;2023-08-20T03:39:45;13.43;;;9.20;;
5493;SDS011;2769;49.864;8.656;2023-08-20T03:42:33;13.13;;;8.77;;
5493;SDS011;2769;49.864;8.656;2023-08-20T03:45:25;10.13;;;9.10;;
5493;SDS011;2769;49.864;8.656;2023-08-20T03:48:13;12.00;;;8.93;;
5493;SDS011;2769;49.864;8.656;2023-08-20T03:51:02;10.83;;;8.40;;
5493;SDS011;2769;49.864;8.656;2023-08-20T03:53:51;11.57;;;9.47;;
5493;SDS011;2769;49.864;8.656;2023-08-20T03:56:41;10.70;;;8.87;;
5493;SDS011;2769;49.864;8.656;2023-08-20T03:59:29;10.33;;;8.40;;
5493;SDS011;2769;49.864;8.656;2023-08-20T04:02:19;11.50;;;9.53;;
5493;SDS011;2769;49.864;8.656;2023-08-20T04:05:07;10.07;;;8.70;;
5493;SDS011;2769;49.864;8.656;2023-08-20T04:07:56;13.53;;;9.37;;
5493;SDS011;2769;49.864;8.656;2023-08-20T04:10:44;10.73;;;9.30;;
5493;SDS011;2769;49.864;8.656;2023-08-20T04:13:33;11.30;;;8.73;;
5493;SDS011;2769;49.864;8.656;2023-08-20T04:16:22;18.30;;;8.60;;
5493;SDS011;2769;49.864;8.656;2023-08-20T04:19:11;11.10;;;9.33;;
5493;SDS011;2769;49.864;8.656;2023-08-20T04:22:01;14.73;;;9.60;;
5493;SDS011;2769;49.864;8.656;2023-08-20T04:24:49;12.50;;;9.87;;
5493;SDS011;2769;49.864;8.656;2023-08-20T04:27:37;11.33;;;10.00;;
5493;SDS011;2769;49.864;8.656;2023-08-20T04:30:25;12.40;;;9.40;;
5493;SDS011;2769;49.864;8.656;2023-08-20T04:33:14;14.77;;;9.40;;
5493;SDS011;2769;49.864;8.656;2023-08-20T04:36:06;11.77;;;8.50;;
5493;SDS011;2769;49.864;8.656;2023-08-20T04:38:54;10.47;;;9.30;;
5493;SDS011;2769;49.864;8.656;2023-08-20T04:41:43;9.93;;;8.93;;
5493;SDS011;2769;49.864;8.656;2023-08-20T04:44:35;11.93;;;9.10;;
5493;SDS011;2769;49.864;8.656;2023-08-20T04:47:23;13.33;;;10.20;;
5493;SDS011;2769;49.864;8.656;2023-08-20T04:50:11;10.90;;;9.90;;
5493;SDS011;2769;49.864;8.656;2023-08-20T04:53:01;21.80;;;10.33;;
5493;SDS011;2769;49.864;8.656;2023-08-20T04:55:49;15.00;;;10.00;;
5493;SDS011;2769;49.864;8.656;2023-08-20T04:58:38;13.97;;;10.07;;
5493;SDS011;2769;49.864;8.656;2023-08-20T05:01:27;13.90;;;10.37;;
5493;SDS011;2769;49.864;8.656;2023-08-20T05:04:15;12.00;;;9.70;;
5493;SDS011;2769;49.864;8.656;2023-08-20T05:07:03;14.60;;;9.60;;
5493;SDS011;2769;49.864;8.656;2023-08-20T05:09:53;16.73;;;8.97;;
5493;SDS011;2769;49.864;8.656;2023-08-20T05:12:42;11.40;;;8.83;;
5493;SDS011;2769;49.864;8.656;2023-08-20T05:15:30;15.17;;;9.90;;
5493;SDS011;2769;49.864;8.656;2023-08-20T05:18:18;11.57;;;8.40;;
5493;SDS011;2769;49.864;8.656;2023-08-20T05:21:07;11.50;;;9.70;;
5493;SDS011;2769;49.864;8.656;2023-08-20T05:23:56;16.77;;;9.50;;
5493;SDS011;2769;49.864;8.656;2023-08-20T05:26:45;9.27;;;8.47;;
5493;SDS011;2769;49.864;8.656;2023-08-20T05:29:33;10.50;;;9.30;;
5493;SDS011;2769;49.864;8.656;2023-08-20T05:32:22;11.63;;;8.83;;
5493;SDS011;2769;49.864;8.656;2023-08-20T05:35:12;16.10;;;9.50;;
5493;SDS011;2769;49.864;8.656;2023-08-20T05:38:02;10.97;;;8.97;;
5493;SDS011;2769;49.864;8.656;2023-08-20T05:40:51;14.50;;;9.50;;
5493;SDS011;2769;49.864;8.656;2023-08-20T05:43:40;10.97;;;9.00;;
5493;SDS011;2769;49.864;8.656;2023-08-20T05:46:28;13.03;;;9.43;;
5493;SDS011;2769;49.864;8.656;2023-08-20T05:49:17;15.13;;;8.87;;
5493;SDS011;2769;49.864;8.656;2023-08-20T05:52:06;12.90;;;9.90;;
5493;SDS011;2769;49.864;8.656;2023-08-20T05:54:54;10.37;;;9.33;;
5493;SDS011;2769;49.864;8.656;2023-08-20T05:57:42;16.83;;;10.00;;
5493;SDS011;2769;49.864;8.656;2023-08-20T06:00:32;12.00;;;9.37;;
5493;SDS011;2769;49.864;8.656;2023-08-20T06:03:20;13.33;;;10.03;;
5493;SDS011;2769;49.864;8.656;2023-08-20T06:06:09;12.33;;;9.30;;
5493;SDS011;2769;49.864;8.656;2023-08-20T06:08:57;11.27;;;9.20;;
5493;SDS011;2769;49.864;8.656;2023-08-20T06:11:55;10.37;;;9.37;;
5493;SDS011;2769;49.864;8.656;2023-08-20T06:14:43;11.20;;;9.37;;
5493;SDS011;2769;49.864;8.656;2023-08-20T06:17:32;11.83;;;9.80;;
5493;SDS011;2769;49.864;8.656;2023-08-20T06:20:21;13.37;;;9.07;;
5493;SDS011;2769;49.864;8.656;2023-08-20T06:23:09;13.40;;;9.13;;
5493;SDS011;2769;49.864;8.656;2023-08-20T06:26:13;9.83;;;8.93;;
5493;SDS011;2769;49.864;8.656;2023-08-20T06:29:01;13.33;;;8.87;;
5493;SDS011;2769;49.864;8.656;2023-08-20T06:31:54;8.83;;;7.87;;
5493;SDS011;2769;49.864;8.656;2023-08-20T06:34:44;12.67;;;8.73;;
5493;SDS011;2769;49.864;8.656;2023-08-20T06:37:32;10.90;;;8.57;;
5493;SDS011;2769;49.864;8.656;2023-08-20T06:40:20;20.13;;;9.20;;
5493;SDS011;2769;49.864;8.656;2023-08-20T06:43:11;8.93;;;7.93;;
5493;SDS011;2769;49.864;8.656;2023-08-20T06:45:59;12.73;;;8.60;;
5493;SDS011;2769;49.864;8.656;2023-08-20T06:48:48;9.90;;;8.87;;
5493;SDS011;2769;49.864;8.656;2023-08-20T06:51:38;9.97;;;8.10;;
5493;SDS011;2769;49.864;8.656;2023-08-20T06:54:27;13.23;;;8.50;;
5493;SDS011;2769;49.864;8.656;2023-08-20T06:57:15;10.77;;;8.40;;
5493;SDS011;2769;49.864;8.656;2023-08-20T07:00:04;8.13;;;7.20;;
5493;SDS011;2769;49.864;8.656;2023-08-20T07:02:53;8.57;;;7.80;;
5493;SDS011;2769;49.864;8.656;2023-08-20T07:05:41;8.90;;;7.70;;
5493;SDS011;2769;49.864;8.656;2023-08-20T07:08:31;10.73;;;8.03;;
5493;SDS011;2769;49.864;8.656;2023-08-20T07:11:19;10.93;;;7.63;;
5493;SDS011;2769;49.864;8.656;2023-08-20T07:14:07;11.77;;;7.63;;
5493;SDS011;2769;49.864;8.656;2023-08-20T07:16:56;9.83;;;7.33;;
5493;SDS011;2769;49.864;8.656;2023-08-20T07:19:44;10.73;;;8.67;;
5493;SDS011;2769;49.864;8.656;2023-08-20T07:22:32;15.47;;;8.23;;
5493;SDS011;2769;49.864;8.656;2023-08-20T07:25:22;15.30;;;7.73;;
5493;SDS011;2769;49.864;8.656;2023-08-20T07:28:10;7.90;;;6.93;;
5493;SDS011;2769;49.864;8.656;2023-08-20T07:30:58;9.17;;;7.57;;
5493;SDS011;2769;49.864;8.656;2023-08-20T07:33:51;10.67;;;7.83;;
5493;SDS011;2769;49.864;8.656;2023-08-20T07:36:41;7.77;;;6.83;;
5493;SDS011;2769;49.864;8.656;2023-08-20T07:39:29;8.07;;;7.27;;
5493;SDS011;2769;49.864;8.656;2023-08-20T07:42:19;10.40;;;7.60;;
5493;SDS011;2769;49.864;8.656;2023-08-20T07:45:08;7.50;;;6.80;;
5493;SDS011;2769;49.864;8.656;2023-08-20T07:47:56;11.63;;;7.20;;
5493;SDS011;2769;49.864;8.656;2023-08-20T07:50:45;8.13;;;7.43;;
5493;SDS011;2769;49.864;8.656;2023-08-20T07:53:33;11.17;;;7.30;;
5493;SDS011;2769;49.864;8.656;2023-08-20T07:56:22;9.93;;;7.20;;
5493;SDS011;2769;49.864;8.656;2023-08-20T07:59:11;9.13;;;7.10;;
5493;SDS011;2769;49.864;8.656;2023-08-20T08:02:00;8.37;;;6.30;;
5493;SDS011;2769;49.864;8.656;2023-08-20T08:04:49;6.67;;;6.07;;
5493;SDS011;2769;49.864;8.656;2023-08-20T08:07:37;6.13;;;5.47;;
5493;SDS011;2769;49.864;8.656;2023-08-20T08:10:25;5.67;;;5.20;;
5493;SDS011;2769;49.864;8.656;2023-08-20T08:13:14;6.10;;;5.50;;
5493;SDS011;2769;49.864;8.656;2023-08-20T08:16:04;5.83;;;5.23;;
5493;SDS011;2769;49.864;8.656;2023-08-20T08:18:53;7.23;;;5.50;;
5493;SDS011;2769;49.864;8.656;2023-08-20T08:21:42;6.90;;;5.10;;
5493;SDS011;2769;49.864;8.656;2023-08-20T08:24:30;8.90;;;5.07;;
5493;SDS011;2769;49.864;8.656;2023-08-20T08:27:18;6.97;;;5.23;;
5493;SDS011;2769;49.864;8.656;2023-08-20T08:30:07;8.87;;;5.70;;
5493;SDS011;2769;49.864;8.656;2023-08-20T08:32:58;7.83;;;5.40;;
5493;SDS011;2769;49.864;8.656;2023-08-20T08:35:46;5.70;;;5.30;;
5493;SDS011;2769;49.864;8.656;2023-08-20T08:38:34;7.67;;;5.13;;
5493;SDS011;2769;49.864;8.656;2023-08-20T08:41:23;7.47;;;5.43;;
5493;SDS011;2769;49.864;8.656;2023-08-20T08:44:13;5.87;;;5.17;;
5493;SDS011;2769;49.864;8.656;2023-08-20T08:47:01;5.67;;;5.03;;
5493;SDS011;2769;49.864;8.656;2023-08-20T08:49:52;5.30;;;4.80;;
5493;SDS011;2769;49.864;8.656;2023-08-20T08:52:41;6.33;;;4.30;;
5493;SDS011;2769;49.864;8.656;2023-08-20T08:55:31;5.40;;;5.00;;
5493;SDS011;2769;49.864;8.656;2023-08-20T08:58:19;10.63;;;4.90;;
5493;SDS011;2769;49.864;8.656;2023-08-20T09:01:08;8.83;;;5.00;;
5493;SDS011;2769;49.864;8.656;2023-08-20T09:03:56;6.53;;;4.87;;
5493;SDS011;2769;49.864;8.656;2023-08-20T09:06:47;5.07;;;4.67;;
5493;SDS011;2769;49.864;8.656;2023-08-20T09:09:36;6.47;;;5.40;;
5493;SDS011;2769;49.864;8.656;2023-08-20T09:12:25;4.70;;;4.30;;
5493;SDS011;2769;49.864;8.656;2023-08-20T09:15:13;5.27;;;4.90;;
5493;SDS011;2769;49.864;8.656;2023-08-20T09:18:02;6.27;;;4.67;;
5493;SDS011;2769;49.864;8.656;2023-08-20T09:20:51;7.43;;;4.90;;
5493;SDS011;2769;49.864;8.656;2023-08-20T09:23:40;6.10;;;4.20;;
5493;SDS011;2769;49.864;8.656;2023-08-20T09:26:33;4.82;;;4.40;;
5493;SDS011;2769;49.864;8.656;2023-08-20T09:29:22;5.60;;;4.47;;
5493;SDS011;2769;49.864;8.656;2023-08-20T09:32:13;5.13;;;4.63;;
5493;SDS011;2769;49.864;8.656;2023-08-20T09:35:02;4.38;;;4.18;;
5493;SDS011;2769;49.864;8.656;2023-08-20T09:37:50;4.67;;;4.17;;
5493;SDS011;2769;49.864;8.656;2023-08-20T09:40:40;7.10;;;4.43;;
5493;SDS011;2769;49.864;8.656;2023-08-20T09:43:28;5.15;;;3.85;;
5493;SDS011;2769;49.864;8.656;2023-08-20T09:46:18;7.45;;;4.25;;
5493;SDS011;2769;49.864;8.656;2023-08-20T09:49:07;4.57;;;4.18;;
5493;SDS011;2769;49.864;8.656;2023-08-20T09:51:57;4.88;;;4.47;;
5493;SDS011;2769;49.864;8.656;2023-08-20T09:54:51;6.88;;;3.75;;
5493;SDS011;2769;49.864;8.656;2023-08-20T09:57:47;4.82;;;4.32;;
5493;SDS011;2769;49.864;8.656;2023-08-20T10:00:36;6.65;;;4.07;;
5493;SDS011;2769;49.864;8.656;2023-08-20T10:03:24;4.57;;;3.90;;
5493;SDS011;2769;49.864;8.656;2023-08-20T10:06:12;4.22;;;3.72;;
5493;SDS011;2769;49.864;8.656;2023-08-20T10:09:01;3.72;;;3.63;;
5493;SDS011;2769;49.864;8.656;2023-08-20T10:11:49;4.10;;;3.80;;
5493;SDS011;2769;49.864;8.656;2023-08-20T10:14:39;4.38;;;3.60;;
5493;SDS011;2769;49.864;8.656;2023-08-20T10:17:28;4.03;;;3.70;;
5493;SDS011;2769;49.864;8.656;2023-08-20T10:20:17;8.05;;;3.50;;
5493;SDS011;2769;49.864;8.656;2023-08-20T10:23:06;3.60;;;3.35;;
5493;SDS011;2769;49.864;8.656;2023-08-20T10:25:54;3.85;;;3.47;;
5493;SDS011;2769;49.864;8.656;2023-08-20T10:29:03;4.18;;;3.70;;
5493;SDS011;2769;49.864;8.656;2023-08-20T10:35:47;3.83;;;3.53;;
5493;SDS011;2769;49.864;8.656;2023-08-20T10:38:37;3.72;;;3.47;;
5493;SDS011;2769;49.864;8.656;2023-08-20T10:41:26;3.65;;;3.33;;
5493;SDS011;2769;49.864;8.656;2023-08-20T10:44:15;3.72;;;3.40;;
5493;SDS011;2769;49.864;8.656;2023-08-20T10:47:03;5.75;;;3.50;;
5493;SDS011;2769;49.864;8.656;2023-08-20T10:49:56;4.20;;;3.85;;
5493;SDS011;2769;49.864;8.656;2023-08-20T10:52:47;3.78;;;3.55;;
5493;SDS011;2769;49.864;8.656;2023-08-20T10:55:36;3.67;;;3.47;;
5493;SDS011;2769;49.864;8.656;2023-08-20T10:58:24;3.05;;;2.85;;
5493;SDS011;2769;49.864;8.656;2023-08-20T11:01:16;3.42;;;2.97;;
5493;SDS011;2769;49.864;8.656;2023-08-20T11:04:06;3.20;;;3.00;;
5493;SDS011;2769;49.864;8.656;2023-08-20T11:06:56;3.42;;;3.13;;
5493;SDS011;2769;49.864;8.656;2023-08-20T11:09:45;3.15;;;2.88;;
5493;SDS011;2769;49.864;8.656;2023-08-20T11:12:35;4.28;;;3.33;;
5493;SDS011;2769;49.864;8.656;2023-08-20T11:15:24;3.50;;;3.30;;
5493;SDS011;2769;49.864;8.656;2023-08-20T11:18:13;3.10;;;2.88;;
5493;SDS011;2769;49.864;8.656;2023-08-20T11:21:01;4.82;;;3.17;;
5493;SDS011;2769;49.864;8.656;2023-08-20T11:23:52;3.50;;;3.30;;
5493;SDS011;2769;49.864;8.656;2023-08-20T11:26:42;5.78;;;3.40;;
5493;SDS011;2769;49.864;8.656;2023-08-20T11:29:31;3.08;;;2.90;;
5493;SDS011;2769;49.864;8.656;2023-08-20T11:32:19;3.80;;;2.80;;
5493;SDS011;2769;49.864;8.656;2023-08-20T11:35:07;3.47;;;2.90;;
5493;SDS011;2769;49.864;8.656;2023-08-20T11:37:56;3.92;;;3.72;;
5493;SDS011;2769;49.864;8.656;2023-08-20T11:40:45;3.20;;;2.97;;
5493;SDS011;2769;49.864;8.656;2023-08-20T11:43:34;3.20;;;3.10;;
5493;SDS011;2769;49.864;8.656;2023-08-20T11:46:22;2.85;;;2.65;;
5493;SDS011;2769;49.864;8.656;2023-08-20T11:49:12;3.22;;;2.85;;
5493;SDS011;2769;49.864;8.656;2023-08-20T11:52:00;2.92;;;2.67;;
5493;SDS011;2769;49.864;8.656;2023-08-20T11:54:48;3.75;;;2.70;;
5493;SDS011;2769;49.864;8.656;2023-08-20T11:57:38;4.75;;;2.65;;
5493;SDS011;2769;49.864;8.656;2023-08-20T12:00:27;2.55;;;2.17;;
5493;SDS011;2769;49.864;8.656;2023-08-20T12:03:17;4.75;;;2.33;;
5493;SDS011;2769;49.864;8.656;2023-08-20T12:06:16;5.28;;;2.70;;
5493;SDS011;2769;49.864;8.656;2023-08-20T12:09:18;2.75;;;2.65;;
5493;SDS011;2769;49.864;8.656;2023-08-20T12:12:07;8.23;;;2.30;;
5493;SDS011;2769;49.864;8.656;2023-08-20T12:14:58;3.08;;;2.80;;
5493;SDS011;2769;49.864;8.656;2023-08-20T12:17:58;2.90;;;2.70;;
5493;SDS011;2769;49.864;8.656;2023-08-20T12:20:48;2.65;;;2.50;;
5493;SDS011;2769;49.864;8.656;2023-08-20T12:23:36;2.28;;;2.17;;
5493;SDS011;2769;49.864;8.656;2023-08-20T12:26:24;5.85;;;2.15;;
5493;SDS011;2769;49.864;8.656;2023-08-20T12:29:12;2.20;;;2.10;;
5493;SDS011;2769;49.864;8.656;2023-08-20T12:32:02;2.40;;;2.13;;
5493;SDS011;2769;49.864;8.656;2023-08-20T12:34:54;2.10;;;2.00;;
5493;SDS011;2769;49.864;8.656;2023-08-20T12:37:42;5.68;;;2.50;;
5493;SDS011;2769;49.864;8.656;2023-08-20T12:40:30;2.20;;;2.00;;
5493;SDS011;2769;49.864;8.656;2023-08-20T12:43:19;3.15;;;2.72;;
5493;SDS011;2769;49.864;8.656;2023-08-20T12:46:07;2.50;;;2.30;;
5493;SDS011;2769;49.864;8.656;2023-08-20T12:48:57;2.30;;;2.20;;
5493;SDS011;2769;49.864;8.656;2023-08-20T12:51:45;2.55;;;2.45;;
5493;SDS011;2769;49.864;8.656;2023-08-20T12:54:34;2.30;;;2.20;;
5493;SDS011;2769;49.864;8.656;2023-08-20T12:57:27;2.35;;;2.08;;
5493;SDS011;2769;49.864;8.656;2023-08-20T13:00:16;3.38;;;2.20;;
5493;SDS011;2769;49.864;8.656;2023-08-20T13:03:05;2.50;;;1.90;;
5493;SDS011;2769;49.864;8.656;2023-08-20T13:05:56;2.05;;;1.95;;
5493;SDS011;2769;49.864;8.656;2023-08-20T13:08:45;2.60;;;2.40;;
5493;SDS011;2769;49.864;8.656;2023-08-20T13:11:34;3.55;;;2.17;;
5493;SDS011;2769;49.864;8.656;2023-08-20T13:14:24;3.20;;;1.80;;
5493;SDS011;2769;49.864;8.656;2023-08-20T13:17:13;1.95;;;1.80;;
5493;SDS011;2769;49.864;8.656;2023-08-20T13:20:02;2.35;;;1.95;;
5493;SDS011;2769;49.864;8.656;2023-08-20T13:22:53;1.70;;;1.60;;
5493;SDS011;2769;49.864;8.656;2023-08-20T13:25:41;2.30;;;1.88;;
5493;SDS011;2769;49.864;8.656;2023-08-20T13:28:30;6.20;;;1.90;;
5493;SDS011;2769;49.864;8.656;2023-08-20T13:31:19;4.80;;;1.73;;
5493;SDS011;2769;49.864;8.656;2023-08-20T13:34:07;6.63;;;2.10;;
5493;SDS011;2769;49.864;8.656;2023-08-20T13:36:55;2.47;;;2.17;;
5493;SDS011;2769;49.864;8.656;2023-08-20T13:39:45;2.20;;;2.00;;
5493;SDS011;2769;49.864;8.656;2023-08-20T13:42:33;2.47;;;2.28;;
5493;SDS011;2769;49.864;8.656;2023-08-20T13:45:22;2.35;;;2.00;;
5493;SDS011;2769;49.864;8.656;2023-08-20T13:48:10;1.73;;;1.63;;
5493;SDS011;2769;49.864;8.656;2023-08-20T13:50:58;3.70;;;2.20;;
5493;SDS011;2769;49.864;8.656;2023-08-20T13:53:47;2.42;;;2.22;;
5493;SDS011;2769;49.864;8.656;2023-08-20T13:56:36;2.17;;;1.90;;
5493;SDS011;2769;49.864;8.656;2023-08-20T13:59:25;2.40;;;2.25;;
5493;SDS011;2769;49.864;8.656;2023-08-20T14:02:13;2.72;;;2.53;;
5493;SDS011;2769;49.864;8.656;2023-08-20T14:05:01;2.97;;;2.30;;
5493;SDS011;2769;49.864;8.656;2023-08-20T14:07:51;2.50;;;2.30;;
5493;SDS011;2769;49.864;8.656;2023-08-20T14:10:39;2.40;;;2.30;;
5493;SDS011;2769;49.864;8.656;2023-08-20T14:13:29;2.25;;;2.13;;
5493;SDS011;2769;49.864;8.656;2023-08-20T14:16:17;2.85;;;2.58;;
5493;SDS011;2769;49.864;8.656;2023-08-20T14:19:06;2.88;;;2.58;;
5493;SDS011;2769;49.864;8.656;2023-08-20T14:21:54;2.50;;;2.30;;
5493;SDS011;2769;49.864;8.656;2023-08-20T14:24:42;2.15;;;2.05;;
5493;SDS011;2769;49.864;8.656;2023-08-20T14:27:31;2.42;;;2.30;;
5493;SDS011;2769;49.864;8.656;2023-08-20T14:30:20;2.60;;;2.40;;
5493;SDS011;2769;49.864;8.656;2023-08-20T14:33:09;3.55;;;2.35;;
5493;SDS011;2769;49.864;8.656;2023-08-20T14:35:57;4.70;;;2.30;;
5493;SDS011;2769;49.864;8.656;2023-08-20T14:38:45;2.55;;;2.45;;
5493;SDS011;2769;49.864;8.656;2023-08-20T14:41:33;4.30;;;2.75;;
5493;SDS011;2769;49.864;8.656;2023-08-20T14:44:22;2.42;;;2.33;;
5493;SDS011;2769;49.864;8.656;2023-08-20T14:47:13;2.78;;;2.58;;
5493;SDS011;2769;49.864;8.656;2023-08-20T14:50:01;2.78;;;2.58;;
5493;SDS011;2769;49.864;8.656;2023-08-20T14:52:50;2.78;;;2.58;;
5493;SDS011;2769;49.864;8.656;2023-08-20T14:55:39;3.00;;;2.20;;
5493;SDS011;2769;49.864;8.656;2023-08-20T14:58:27;3.35;;;2.28;;
5493;SDS011;2769;49.864;8.656;2023-08-20T15:01:18;2.58;;;2.20;;
5493;SDS011;2769;49.864;8.656;2023-08-20T15:04:08;4.90;;;2.95;;
5493;SDS011;2769;49.864;8.656;2023-08-20T15:06:56;3.22;;;2.85;;
5493;SDS011;2769;49.864;8.656;2023-08-20T15:09:46;8.63;;;3.17;;
5493;SDS011;2769;49.864;8.656;2023-08-20T15:12:34;3.60;;;3.30;;
5493;SDS011;2769;49.864;8.656;2023-08-20T15:15:22;3.60;;;3.25;;
5493;SDS011;2769;49.864;8.656;2023-08-20T15:18:12;3.60;;;2.88;;
5493;SDS011;2769;49.864;8.656;2023-08-20T15:21:02;3.30;;;3.00;;
5493;SDS011;2769;49.864;8.656;2023-08-20T15:23:50;3.43;;;3.20;;
5493;SDS011;2769;49.864;8.656;2023-08-20T15:26:39;8.57;;;3.40;;
5493;SDS011;2769;49.864;8.656;2023-08-20T15:29:28;3.80;;;3.10;;
5493;SDS011;2769;49.864;8.656;2023-08-20T15:32:16;6.70;;;3.30;;
5493;SDS011;2769;49.864;8.656;2023-08-20T15:35:04;10.23;;;3.93;;
5493;SDS011;2769;49.864;8.656;2023-08-20T15:37:55;6.40;;;3.70;;
5493;SDS011;2769;49.864;8.656;2023-08-20T15:40:43;4.30;;;3.90;;
5493;SDS011;2769;49.864;8.656;2023-08-20T15:43:32;4.77;;;4.20;;
5493;SDS011;2769;49.864;8.656;2023-08-20T15:46:20;5.47;;;4.33;;
5493;SDS011;2769;49.864;8.656;2023-08-20T15:49:10;4.20;;;3.80;;
5493;SDS011;2769;49.864;8.656;2023-08-20T15:51:58;4.27;;;3.50;;
5493;SDS011;2769;49.864;8.656;2023-08-20T15:54:48;4.10;;;3.90;;
5493;SDS011;2769;49.864;8.656;2023-08-20T15:57:36;4.67;;;3.80;;
5493;SDS011;2769;49.864;8.656;2023-08-20T16:00:25;4.10;;;3.80;;
5493;SDS011;2769;49.864;8.656;2023-08-20T16:03:14;4.63;;;4.10;;
5493;SDS011;2769;49.864;8.656;2023-08-20T16:06:02;5.00;;;4.00;;
5493;SDS011;2769;49.864;8.656;2023-08-20T16:08:51;4.23;;;3.90;;
5493;SDS011;2769;49.864;8.656;2023-08-20T16:11:40;6.73;;;3.67;;
5493;SDS011;2769;49.864;8.656;2023-08-20T16:14:28;5.37;;;4.20;;
5493;SDS011;2769;49.864;8.656;2023-08-20T16:17:17;4.30;;;3.60;;
5493;SDS011;2769;49.864;8.656;2023-08-20T16:20:06;4.73;;;4.03;;
5493;SDS011;2769;49.864;8.656;2023-08-20T16:22:55;4.00;;;3.70;;
5493;SDS011;2769;49.864;8.656;2023-08-20T16:25:43;4.53;;;4.13;;
5493;SDS011;2769;49.864;8.656;2023-08-20T16:28:33;4.10;;;3.70;;
5493;SDS011;2769;49.864;8.656;2023-08-20T16:31:22;4.00;;;3.63;;
5493;SDS011;2769;49.864;8.656;2023-08-20T16:34:10;4.73;;;3.50;;
5493;SDS011;2769;49.864;8.656;2023-08-20T16:36:59;4.20;;;3.50;;
5493;SDS011;2769;49.864;8.656;2023-08-20T16:39:48;5.53;;;4.07;;
5493;SDS011;2769;49.864;8.656;2023-08-20T16:42:36;5.10;;;4.70;;
5493;SDS011;2769;49.864;8.656;2023-08-20T16:45:26;3.70;;;3.50;;
5493;SDS011;2769;49.864;8.656;2023-08-20T16:48:14;4.47;;;4.10;;
5493;SDS011;2769;49.864;8.656;2023-08-20T16:51:02;6.93;;;4.17;;
5493;SDS011;2769;49.864;8.656;2023-08-20T16:53:51;8.27;;;4.80;;
5493;SDS011;2769;49.864;8.656;2023-08-20T16:56:40;8.07;;;4.70;;
5493;SDS011;2769;49.864;8.656;2023-08-20T16:59:28;5.93;;;4.20;;
5493;SDS011;2769;49.864;8.656;2023-08-20T17:02:18;8.07;;;4.60;;
5493;SDS011;2769;49.864;8.656;2023-08-20T17:05:07;5.20;;;4.37;;
5493;SDS011;2769;49.864;8.656;2023-08-20T17:07:55;4.50;;;3.90;;
5493;SDS011;2769;49.864;8.656;2023-08-20T17:10:44;10.03;;;5.20;;
5493;SDS011;2769;49.864;8.656;2023-08-20T17:13:33;5.23;;;4.63;;
5493;SDS011;2769;49.864;8.656;2023-08-20T17:16:22;5.43;;;4.57;;
5493;SDS011;2769;49.864;8.656;2023-08-20T17:19:12;4.60;;;4.10;;
5493;SDS011;2769;49.864;8.656;2023-08-20T17:22:00;9.23;;;4.90;;
5493;SDS011;2769;49.864;8.656;2023-08-20T17:24:49;6.40;;;3.80;;
5493;SDS011;2769;49.864;8.656;2023-08-20T17:27:37;6.93;;;4.10;;
5493;SDS011;2769;49.864;8.656;2023-08-20T17:30:25;9.07;;;4.03;;
5493;SDS011;2769;49.864;8.656;2023-08-20T17:33:13;5.00;;;4.37;;